Time;durP1;ratioP1;P1;durP2;ratioP2;P2;SDS_P1;SDS_P2;PMS_P1;PMS_P2;Temp;Humidity;BMP_temperature;BMP_pressure;BME280_temperature;BME280_humidity;BME280_pressure;Samples;Min_cycle;Max_cycle;Signal;HPM_P1;HPM_P2
2020/06/05 00:01:55;;;;;;;2;1.8;;;;;;;12.69;89.8877;940.2006;;;;
2020/06/05 00:04:21;;;;;;;2.3;2.1;;;;;;;12.73;90.77637;940.1783;;;;
2020/06/05 00:06:46;;;;;;;2.6;2.2;;;;;;;12.71;90.38672;940.2173;;;;
2020/06/05 00:09:12;;;;;;;3.9;2.1;;;;;;;12.8;90.60449;940.1785;;;;
2020/06/05 00:11:37;;;;;;;2.2;1.9;;;;;;;12.76;91.15039;940.1117;;;;
2020/06/05 00:14:03;;;;;;;2;1.9;;;;;;;12.82;91.16504;940.1559;;;;
2020/06/05 00:16:29;;;;;;;2.4;1.9;;;;;;;12.73;90.60059;940.1906;;;;
2020/06/05 00:18:53;;;;;;;2.3;2.1;;;;;;;12.84;90.46289;940.253;;;;
2020/06/05 00:21:19;;;;;;;2.9;2.2;;;;;;;12.91;89.83984;940.2856;;;;
2020/06/05 00:23:44;;;;;;;2.1;1.9;;;;;;;12.87;89.28711;940.3326;;;;
2020/06/05 00:26:11;;;;;;;2.5;2;;;;;;;12.84;89.7793;940.2653;;;;
2020/06/05 00:28:36;;;;;;;2.5;2.1;;;;;;;12.81;89.13477;940.2211;;;;
2020/06/05 00:31:01;;;;;;;3.5;2.2;;;;;;;12.86;89.21582;940.1298;;;;
2020/06/05 00:33:36;;;;;;;2.5;2.3;;;;;;;12.83;89.60352;940.1223;;;;
2020/06/05 00:35:54;;;;;;;3.5;2.5;;;;;;;12.84;89.51465;940.1156;;;;
2020/06/05 00:38:18;;;;;;;2.5;2.3;;;;;;;12.88;88.24902;940.0796;;;;
2020/06/05 00:40:47;;;;;;;2.9;2.4;;;;;;;12.88;88.58496;940.0461;;;;
2020/06/05 00:43:12;;;;;;;2.9;2.2;;;;;;;12.81;88.58203;940.0584;;;;
2020/06/05 00:45:39;;;;;;;4.1;2.7;;;;;;;12.84;88.59863;940.0193;;;;
2020/06/05 00:48:04;;;;;;;2.7;2.4;;;;;;;12.84;88.32324;940.0519;;;;
2020/06/05 00:50:29;;;;;;;2.6;2.4;;;;;;;12.81;88.5127;940.0567;;;;
2020/06/05 00:52:56;;;;;;;2.7;2.5;;;;;;;12.94;87.94922;939.9579;;;;
2020/06/05 00:55:21;;;;;;;2.8;2.5;;;;;;;12.83;88.53906;939.8928;;;;
2020/06/05 00:57:46;;;;;;;2.5;2.3;;;;;;;12.7;88.6875;939.8897;;;;
2020/06/05 01:00:11;;;;;;;2.6;2.4;;;;;;;12.78;89.88184;939.8636;;;;
2020/06/05 01:02:36;;;;;;;2.7;2.5;;;;;;;12.72;88.78516;939.8353;;;;
2020/06/05 01:05:04;;;;;;;2.6;2.4;;;;;;;12.77;88.75977;939.921;;;;
2020/06/05 01:09:29;;;;;;;3;2.7;;;;;;;12.85;88.50781;939.9651;;;;
2020/06/05 01:11:54;;;;;;;2.6;2.4;;;;;;;12.88;88.04102;939.9953;;;;
2020/06/05 01:14:22;;;;;;;3.1;2.6;;;;;;;12.82;88.87305;940.0941;;;;
2020/06/05 01:16:46;;;;;;;4;2.4;;;;;;;12.94;88.57227;940.0491;;;;
2020/06/05 01:19:12;;;;;;;2.6;2.4;;;;;;;12.83;88.80469;940.0715;;;;
2020/06/05 01:21:37;;;;;;;2.6;2.4;;;;;;;12.86;88.82422;940.0964;;;;
2020/06/05 01:24:02;;;;;;;2.9;2.6;;;;;;;12.88;88.15625;940.0969;;;;
2020/06/05 01:26:29;;;;;;;3.1;2.5;;;;;;;;;;;;;
2020/06/05 01:28:54;;;;;;;3.1;2.7;;;;;;;;;;;;;
2020/06/05 01:31:20;;;;;;;2.8;2.6;;;;;;;;;;;;;
2020/06/05 01:33:45;;;;;;;3.2;2.5;;;;;;;;;;;;;
2020/06/05 01:36:12;;;;;;;2.7;2.5;;;;;;;;;;;;;
2020/06/05 01:38:37;;;;;;;2.7;2.5;;;;;;;;;;;;;
2020/06/05 01:41:05;;;;;;;3.3;2.7;;;;;;;;;;;;;
2020/06/05 01:43:30;;;;;;;2.5;2.3;;;;;;;;;;;;;
2020/06/05 01:45:55;;;;;;;3.1;2.6;;;;;;;;;;;;;
2020/06/05 01:48:20;;;;;;;3.4;2.7;;;;;;;;;;;;;
2020/06/05 01:50:47;;;;;;;3;2.8;;;;;;;;;;;;;
2020/06/05 01:53:29;;;;;;;3.1;2.5;;;;;;;;;;;;;
2020/06/05 01:55:37;;;;;;;2.9;2.7;;;;;;;;;;;;;
2020/06/05 01:58:05;;;;;;;4.4;2.7;;;;;;;;;;;;;
2020/06/05 02:02:52;;;;;;;2.6;2.4;;;;;;;;;;;;;
2020/06/05 02:05:17;;;;;;;3.9;2.6;;;;;;;;;;;;;
2020/06/05 02:07:42;;;;;;;2.6;2.4;;;;;;;;;;;;;
2020/06/05 02:10:34;;;;;;;2.5;2.2;;;;;;;;;;;;;
2020/06/05 02:12:33;;;;;;;3.1;2.3;;;;;;;;;;;;;
2020/06/05 02:14:59;;;;;;;3.4;2.3;;;;;;;;;;;;;
2020/06/05 02:17:24;;;;;;;2.5;2.3;;;;;;;;;;;;;
2020/06/05 02:19:51;;;;;;;2.3;2.1;;;;;;;;;;;;;
2020/06/05 02:22:16;;;;;;;2.4;2.2;;;;;;;;;;;;;
2020/06/05 02:24:43;;;;;;;3.2;2.3;;;;;;;;;;;;;
2020/06/05 02:27:08;;;;;;;2.5;2.3;;;;;;;;;;;;;
2020/06/05 02:29:33;;;;;;;2.6;1.9;;;;;;;;;;;;;
2020/06/05 02:31:59;;;;;;;4.5;2.3;;;;;;;;;;;;;
2020/06/05 02:34:25;;;;;;;2.5;2.3;;;;;;;;;;;;;
2020/06/05 02:36:50;;;;;;;2.7;2.4;;;;;;;;;;;;;
2020/06/05 02:39:16;;;;;;;2.4;2.2;;;;;;;;;;;;;
2020/06/05 02:41:53;;;;;;;3.5;2.7;;;;;;;;;;;;;
2020/06/05 02:46:55;;;;;;;2.8;2.6;;;;;;;;;;;;;
2020/06/05 02:49:05;;;;;;;3.3;2.9;;;;;;;;;;;;;
2020/06/05 02:52:44;;;;;;;2.6;2.4;;;;;;;;;;;;;
2020/06/05 02:53:48;;;;;;;2.9;2.5;;;;;;;;;;;;;
2020/06/05 02:56:17;;;;;;;2.7;2.5;;;;;;;;;;;;;
2020/06/05 02:59:00;;;;;;;2.6;2.4;;;;;;;;;;;;;
2020/06/05 03:03:37;;;;;;;2.8;2.6;;;;;;;;;;;;;
2020/06/05 03:05:59;;;;;;;2.8;2.6;;;;;;;;;;;;;
2020/06/05 03:08:34;;;;;;;2.7;2.5;;;;;;;;;;;;;
2020/06/05 03:18:05;;;;;;;3;2.8;;;;;;;;;;;;;
2020/06/05 03:20:25;;;;;;;3.2;2.9;;;;;;;;;;;;;
2020/06/05 03:23:08;;;;;;;3.2;2.9;;;;;;;;;;;;;
2020/06/05 03:25:26;;;;;;;4.1;3.2;;;;;;;;;;;;;
2020/06/05 03:27:59;;;;;;;3.8;3.1;;;;;;;;;;;;;
2020/06/05 03:30:09;;;;;;;4;3.7;;;;;;;;;;;;;
2020/06/05 03:32:43;;;;;;;4.4;4;;;;;;;;;;;;;
2020/06/05 03:35:04;;;;;;;3.8;3.5;;;;;;;;;;;;;
2020/06/05 03:37:22;;;;;;;4.2;3.8;;;;;;;;;;;;;
2020/06/05 03:39:50;;;;;;;4.3;4;;;;;;;;;;;;;
2020/06/05 03:42:13;;;;;;;5.5;5;;;;;;;;;;;;;
2020/06/05 03:47:16;;;;;;;5.6;5.1;;;;;;;;;;;;;
2020/06/05 03:49:30;;;;;;;5.1;4.7;;;;;;;;;;;;;
2020/06/05 03:51:59;;;;;;;5.7;5.2;;;;;;;;;;;;;
2020/06/05 03:54:29;;;;;;;5.8;5.2;;;;;;;;;;;;;
2020/06/05 03:56:52;;;;;;;6.1;5.6;;;;;;;;;;;;;
2020/06/05 03:59:13;;;;;;;6.4;5.8;;;;;;;;;;;;;
2020/06/05 04:04:58;;;;;;;6.9;6.3;;;;;;;;;;;;;
2020/06/05 04:10:06;;;;;;;7.5;6.8;;;;;;;;;;;;;
2020/06/05 04:12:20;;;;;;;7.1;6.5;;;;;;;;;;;;;
2020/06/05 04:19:43;;;;;;;7;6.4;;;;;;;;;;;;;
2020/06/05 04:26:44;;;;;;;9.1;8.3;;;;;;;;;;;;;
2020/06/05 04:29:07;;;;;;;14;12.5;;;;;;;;;;;;;
2020/06/05 04:31:47;;;;;;;9.8;8.5;;;;;;;;;;;;;
2020/06/05 04:34:06;;;;;;;9.9;9;;;;;;;;;;;;;
2020/06/05 04:36:28;;;;;;;9;8.2;;;;;;;;;;;;;
2020/06/05 04:38:49;;;;;;;8.9;8;;;;;;;;;;;;;
2020/06/05 04:41:17;;;;;;;8.4;7.5;;;;;;;;;;;;;
2020/06/05 04:45:21;;;;;;;8.7;7.8;;;;;;;;;;;;;
2020/06/05 04:46:51;;;;;;;9;8.2;;;;;;;;;;;;;
2020/06/05 04:48:35;;;;;;;9;8.2;;;;;;;;;;;;;
2020/06/05 04:51:02;;;;;;;8.6;7.8;;;;;;;;;;;;;
2020/06/05 04:53:36;;;;;;;9.6;8.7;;;;;;;;;;;;;
2020/06/05 04:55:51;;;;;;;10.2;9.2;;;;;;;;;;;;;
2020/06/05 04:58:30;;;;;;;9.8;8.9;;;;;;;;;;;;;
2020/06/05 05:03:09;;;;;;;10.5;9.5;;;;;;;;;;;;;
2020/06/05 05:11:06;;;;;;;11.3;9.4;;;;;;;;;;;;;
2020/06/05 05:12:47;;;;;;;10.3;9.3;;;;;;;;;;;;;
2020/06/05 05:15:12;;;;;;;11.2;10.2;;;;;;;;;;;;;
2020/06/05 05:17:48;;;;;;;11.9;10.8;;;;;;;;;;;;;
2020/06/05 05:19:57;;;;;;;11.4;10.4;;;;;;;;;;;;;
2020/06/05 05:22:22;;;;;;;11.8;10.7;;;;;;;;;;;;;
2020/06/05 05:24:50;;;;;;;11.5;10.4;;;;;;;;;;;;;
2020/06/05 05:29:45;;;;;;;11.6;10.5;;;;;;;;;;;;;
2020/06/05 05:38:15;;;;;;;11.2;10.2;;;;;;;;;;;;;
2020/06/05 05:39:19;;;;;;;11.6;10.6;;;;;;;;;;;;;
2020/06/05 05:41:45;;;;;;;11.2;10.2;;;;;;;;;;;;;
2020/06/05 05:44:24;;;;;;;12.4;11.2;;;;;;;;;;;;;
2020/06/05 05:46:42;;;;;;;12.1;11.1;;;;;;;;;;;;;
2020/06/05 05:51:26;;;;;;;11.8;10.6;;;;;;;;;;;;;
2020/06/05 05:53:50;;;;;;;12.5;11.2;;;;;;;;;;;;;
2020/06/05 05:56:19;;;;;;;11.5;10.5;;;;;;;;;;;;;
2020/06/05 05:58:40;;;;;;;11.7;10.6;;;;;;;;;;;;;
2020/06/05 06:01:11;;;;;;;11.6;10.4;;;;;;;;;;;;;
2020/06/05 06:03:30;;;;;;;11.6;10.4;;;;;;;;;;;;;
2020/06/05 06:06:17;;;;;;;11.2;10.1;;;;;;;;;;;;;
2020/06/05 06:08:40;;;;;;;12;10.8;;;;;;;;;;;;;
2020/06/05 06:10:57;;;;;;;11.1;10.1;;;;;;;;;;;;;
2020/06/05 06:13:24;;;;;;;11.5;10.4;;;;;;;;;;;;;
2020/06/05 06:15:45;;;;;;;10.5;9.6;;;;;;;;;;;;;
2020/06/05 06:20:37;;;;;;;11;10;;;;;;;;;;;;;
2020/06/05 06:23:40;;;;;;;10.8;9.8;;;;;;;;;;;;;
2020/06/05 06:25:24;;;;;;;10;8.9;;;;;;;;;;;;;
2020/06/05 06:28:21;;;;;;;10.8;9.8;;;;;;;;;;;;;
2020/06/05 06:32:47;;;;;;;10.4;9.4;;;;;;;;;;;;;
2020/06/05 06:40:30;;;;;;;11.3;9.9;;;;;;;;;;;;;
2020/06/05 06:45:04;;;;;;;10.8;9.7;;;;;;;;;;;;;
2020/06/05 06:47:19;;;;;;;12.2;9.7;;;;;;;;;;;;;
2020/06/05 06:52:05;;;;;;;10.1;9.1;;;;;;;;;;;;;
2020/06/05 06:54:27;;;;;;;8.8;8;;;;;;;;;;;;;
2020/06/05 06:59:26;;;;;;;10.7;9.6;;;;;;;;;;;;;
2020/06/05 07:09:46;;;;;;;8.6;7.3;;;;;;;13.05;80.12109;942.8276;;;;
2020/06/05 07:12:19;;;;;;;9.1;6.8;;;;;;;13.24;80.32031;942.7978;;;;
2020/06/05 07:14:39;;;;;;;7.9;7.2;;;;;;;12.95;81.37598;942.817;;;;
2020/06/05 07:17:04;;;;;;;6.3;5.7;;;;;;;13.23;80.70215;942.8618;;;;
2020/06/05 07:19:32;;;;;;;6.4;5.8;;;;;;;13.19;80.85547;942.8362;;;;
2020/06/05 07:22:11;;;;;;;6.1;5.5;;;;;;;13.06;78.89746;942.7816;;;;
2020/06/05 07:24:39;;;;;;;5.9;5.4;;;;;;;13.24;78.05176;942.7617;;;;
2020/06/05 07:26:42;;;;;;;5.4;4.9;;;;;;;13.34;76.81738;942.7986;;;;
2020/06/05 07:29:05;;;;;;;5.8;4.7;;;;;;;13.34;75.78809;942.7358;;;;
2020/06/05 07:31:42;;;;;;;4.7;4.3;;;;;;;13.38;75.69922;942.7564;;;;
2020/06/05 07:34:04;;;;;;;4.9;4.5;;;;;;;13.52;75.36719;942.81;;;;
2020/06/05 07:36:40;;;;;;;5.5;4.9;;;;;;;13.58;74.62305;942.7726;;;;
2020/06/05 07:39:09;;;;;;;4.7;4.3;;;;;;;13.62;73.75977;942.7656;;;;
2020/06/05 07:41:26;;;;;;;4.5;4.1;;;;;;;13.78;73.5332;942.7531;;;;
2020/06/05 07:43:53;;;;;;;4.9;4.4;;;;;;;13.85;73.59082;942.7581;;;;
2020/06/05 07:46:10;;;;;;;4.6;4.2;;;;;;;13.83;73.69141;942.7424;;;;
2020/06/05 07:48:30;;;;;;;5;4.6;;;;;;;13.58;74.04395;942.6853;;;;
2020/06/05 07:50:52;;;;;;;4.7;4.3;;;;;;;13.49;74.27148;942.7205;;;;
2020/06/05 07:55:42;;;;;;;5;4.6;;;;;;;13.76;74.42285;942.7734;;;;
2020/06/05 07:58:11;;;;;;;5.8;5.1;;;;;;;13.6;74.52344;942.7453;;;;
2020/06/05 08:10:14;;;;;;;6.7;5.1;;;;;;;13.42;75.20898;942.8292;;;;
2020/06/05 08:12:41;;;;;;;5.5;5;;;;;;;13.33;75.07813;942.8488;;;;
2020/06/05 08:15:13;;;;;;;5.2;4.8;;;;;;;13.48;76.49512;942.8801;;;;
2020/06/05 08:17:41;;;;;;;5.6;5.1;;;;;;;13.56;77.93457;942.8656;;;;
2020/06/05 08:20:04;;;;;;;6.1;5.5;;;;;;;13.4;78.85547;942.8687;;;;
2020/06/05 08:27:17;;;;;;;7.3;6.6;;;;;;;13.47;86.33008;942.9183;;;;
2020/06/05 08:29:37;;;;;;;6.3;5.8;;;;;;;13.1;83.84961;942.9036;;;;
2020/06/05 08:37:13;;;;;;;6.8;6.2;;;;;;;13.68;86.20996;942.9139;;;;
2020/06/05 08:39:31;;;;;;;6.8;6;;;;;;;13.9;83.12012;942.8744;;;;
2020/06/05 08:46:55;;;;;;;6.5;5.9;;;;;;;13.72;83.41211;942.7314;;;;
2020/06/05 08:49:10;;;;;;;6;5.5;;;;;;;13.72;80.77832;942.693;;;;
2020/06/05 08:56:34;;;;;;;6;5.5;;;;;;;13.98;80.98926;942.717;;;;
2020/06/05 09:03:37;;;;;;;5.1;4.6;;;;;;;14.06;80.27344;942.7405;;;;
2020/06/05 09:06:23;;;;;;;4.8;4.3;;;;;;;14.18;79.57715;942.7289;;;;
2020/06/05 09:14:09;;;;;;;4.2;3.8;;;;;;;13.9;77.57813;942.8317;;;;
2020/06/05 09:16:18;;;;;;;4.9;3.5;;;;;;;13.64;76.67383;942.8585;;;;
2020/06/05 09:24:04;;;;;;;4;3.7;;;;;;;13.88;76.05566;942.8608;;;;
2020/06/05 09:30:33;;;;;;;4.1;3.7;;;;;;;14.16;77.13477;942.8516;;;;
2020/06/05 09:33:05;;;;;;;4.1;3.8;;;;;;;14.15;76.56641;942.9158;;;;
2020/06/05 09:35:26;;;;;;;4.7;4.3;;;;;;;14.42;76.83398;942.8778;;;;
2020/06/05 09:37:52;;;;;;;4.6;4.1;;;;;;;14.57;75.59473;942.9261;;;;
2020/06/05 09:42:47;;;;;;;4;3.7;;;;;;;14.47;76.63477;942.8746;;;;
2020/06/05 09:45:20;;;;;;;3.3;3;;;;;;;14.24;74.50488;942.9203;;;;
2020/06/05 09:47:42;;;;;;;2.9;2.6;;;;;;;14.27;74.41602;942.9098;;;;
2020/06/05 09:58:13;;;;;;;2.4;2.2;;;;;;;14.14;73.47656;942.897;;;;
2020/06/05 10:00:18;;;;;;;2.5;2.3;;;;;;;14.15;74.53516;942.9617;;;;
2020/06/05 10:07:06;;;;;;;2.8;2.6;;;;;;;13.73;76.20215;942.972;;;;
2020/06/05 10:14:31;;;;;;;3.9;3.6;;;;;;;13.53;81.24414;942.9924;;;;
2020/06/05 10:19:20;;;;;;;4.3;3.9;;;;;;;13.27;83;942.9548;;;;
2020/06/05 10:21:57;;;;;;;5;4.6;;;;;;;13.38;83.76367;942.9264;;;;
2020/06/05 10:24:08;;;;;;;5.2;4.7;;;;;;;13.43;84.45605;942.8501;;;;
2020/06/05 10:26:27;;;;;;;5.1;4.7;;;;;;;13.66;84.83691;942.822;;;;
2020/06/05 10:28:54;;;;;;;4.7;4.3;;;;;;;13.77;85.11523;942.8359;;;;
2020/06/05 10:31:22;;;;;;;4.6;4.2;;;;;;;14.04;82.77539;942.7347;;;;
2020/06/05 10:36:21;;;;;;;2.8;2.5;;;;;;;14.09;77.64551;942.6646;;;;
2020/06/05 10:38:30;;;;;;;2.3;2.1;;;;;;;14.38;77.10645;942.6113;;;;
2020/06/05 10:41:07;;;;;;;1.8;1.7;;;;;;;14.24;75.11816;942.6367;;;;
2020/06/05 10:43:33;;;;;;;2.6;1.7;;;;;;;14.71;74.90918;942.5644;;;;
2020/06/05 10:45:50;;;;;;;1.9;1.7;;;;;;;15.12;72.875;942.6146;;;;
2020/06/05 10:50:44;;;;;;;1.8;1.6;;;;;;;15.22;71.9375;942.6719;;;;
2020/06/05 10:53:15;;;;;;;1.2;1.1;;;;;;;15.08;70.58984;942.6708;;;;
2020/06/05 10:59:25;;;;;;;2.2;1.4;;;;;;;14.8;71.76465;942.5769;;;;
2020/06/05 11:05:20;;;;;;;2.1;1.9;;;;;;;14.71;73.16602;942.6431;;;;
2020/06/05 11:07:41;;;;;;;2;1.5;;;;;;;14.79;72.16992;942.6894;;;;
2020/06/05 11:12:52;;;;;;;2.4;2.2;;;;;;;14.47;73.05664;942.7051;;;;
2020/06/05 11:14:57;;;;;;;2.3;2.1;;;;;;;14.6;74.26367;942.6828;;;;
2020/06/05 11:17:22;;;;;;;3.4;2.4;;;;;;;14.74;77.5166;942.6547;;;;
2020/06/05 11:19:45;;;;;;;2.4;2.2;;;;;;;14.31;77.29102;942.6465;;;;
2020/06/05 11:24:30;;;;;;;2.8;2.4;;;;;;;14.57;76.87305;942.463;;;;
2020/06/05 11:27:03;;;;;;;2.6;2.4;;;;;;;14.36;75.25684;942.5366;;;;
2020/06/05 11:29:29;;;;;;;2.3;2.1;;;;;;;14.34;76.85449;942.4763;;;;
2020/06/05 11:34:32;;;;;;;2.9;2.3;;;;;;;14.81;75.7627;942.5859;;;;
2020/06/05 11:36:39;;;;;;;2.5;2.3;;;;;;;14.81;74.37988;942.5999;;;;
2020/06/05 11:39:07;;;;;;;2.6;2;;;;;;;14.63;74.43066;942.5828;;;;
2020/06/05 11:41:29;;;;;;;2.7;2;;;;;;;14.43;74.11816;942.6529;;;;
2020/06/05 11:43:59;;;;;;;2.2;1.8;;;;;;;14.56;73.5127;942.6747;;;;
2020/06/05 11:53:47;;;;;;;1.8;1.7;;;;;;;14.52;73.50684;942.7133;;;;
2020/06/05 11:56:13;;;;;;;2.1;1.6;;;;;;;14.27;73.76563;942.736;;;;
2020/06/05 11:58:26;;;;;;;2.2;1.4;;;;;;;14.6;73.54297;942.6625;;;;
2020/06/05 12:04:11;;;;;;;2.2;1.7;;;;;;;14.99;69.72656;942.7371;;;;
2020/06/05 12:06:03;;;;;;;1.9;1.7;;;;;;;15.1;71.01074;942.7349;;;;
2020/06/05 12:10:46;;;;;;;2.4;1.7;;;;;;;15.27;70.0498;942.6609;;;;
2020/06/05 12:20:35;;;;;;;1.6;1.5;;;;;;;14.66;74.38867;942.8239;;;;
2020/06/05 12:22:44;;;;;;;2;1.8;;;;;;;14.45;76.4541;942.9121;;;;
2020/06/05 12:27:38;;;;;;;5.9;3.3;;;;;;;13.4;89.58301;943.3622;;;;
2020/06/05 12:37:23;;;;;;;2.7;1.2;;;;;;;12.47;91.19434;943.2963;;;;
2020/06/05 12:42:22;;;;;;;2.5;1.5;;;;;;;12.48;92.47949;943.2138;;;;
2020/06/05 12:46:58;;;;;;;2.1;1.3;;;;;;;12.66;90.62305;943.3547;;;;
2020/06/05 12:54:26;;;;;;;2.6;1.9;;;;;;;12.66;97.03906;943.5371;;;;
2020/06/05 12:56:44;;;;;;;2.4;1.8;;;;;;;12.49;95.02441;943.5132;;;;
2020/06/05 13:12:38;;;;;;;1.7;1.3;;;;;;;13.24;90.69629;943.3992;;;;
2020/06/05 14:03:49;;;;;;;2;1.8;;;;;;;14.2;82.59766;943.6224;;;;
2020/06/05 14:10:01;;;;;;;2;1.9;;;;;;;14.11;81.63086;943.5815;;;;
2020/06/05 14:11:49;;;;;;;2;1.8;;;;;;;14.01;79.86035;943.5648;;;;
2020/06/05 14:14:17;;;;;;;2;1.8;;;;;;;14;79.12695;943.6175;;;;
2020/06/05 14:16:59;;;;;;;1.9;1.7;;;;;;;14.17;81.11816;943.6222;;;;
2020/06/05 14:24:30;;;;;;;2.3;1.9;;;;;;;14.37;79.82129;943.5072;;;;
2020/06/05 14:30:28;;;;;;;1.9;1.7;;;;;;;14.71;74.98047;943.4744;;;;
2020/06/05 14:34:41;;;;;;;1.9;1.4;;;;;;;14.86;73.40137;943.3521;;;;
2020/06/05 14:35:49;;;;;;;2.1;1.2;;;;;;;15.13;72.03711;943.2586;;;;
2020/06/05 14:41:35;;;;;;;1.4;1.3;;;;;;;15.29;69.64551;943.3111;;;;
2020/06/05 14:44:36;;;;;;;2;1.5;;;;;;;15.1;67.82324;943.2479;;;;
2020/06/05 14:46:48;;;;;;;2.9;1.6;;;;;;;15.74;68.0752;943.2997;;;;
2020/06/05 14:49:16;;;;;;;2.2;1.4;;;;;;;15.87;66.81445;943.3099;;;;
2020/06/05 14:51:49;;;;;;;2.4;1.3;;;;;;;15.53;69.16211;943.2957;;;;
2020/06/05 14:54:45;;;;;;;1.5;1.4;;;;;;;15.41;67.91797;943.3022;;;;
2020/06/05 14:56:29;;;;;;;1.4;1.3;;;;;;;15.11;68.83789;943.3052;;;;
2020/06/05 15:17:17;;;;;;;2.4;1.8;;;;;;;16.15;65.38672;943.324;;;;
2020/06/05 15:19:02;;;;;;;2.9;1.8;;;;;;;16.58;64.04004;943.1886;;;;
2020/06/05 15:21:18;;;;;;;2.1;1.5;;;;;;;16.44;64.15918;943.4084;;;;
2020/06/05 15:23:56;;;;;;;2.2;1.8;;;;;;;16.48;63.1377;943.3365;;;;
2020/06/05 15:26:06;;;;;;;3;1.6;;;;;;;16.87;62.98438;943.2993;;;;
2020/06/05 15:30:58;;;;;;;2.1;1.8;;;;;;;16.43;62.37402;943.2277;;;;
2020/06/05 15:34:07;;;;;;;2.3;1.6;;;;;;;16.47;63.9541;943.2684;;;;
2020/06/05 15:36:03;;;;;;;2.1;1.8;;;;;;;16.28;64.56836;943.3317;;;;
2020/06/05 15:38:12;;;;;;;2.7;1.7;;;;;;;16.12;64.4043;943.1851;;;;
2020/06/05 15:40:50;;;;;;;2.1;1.7;;;;;;;15.9;63.84766;943.1981;;;;
2020/06/05 15:43:15;;;;;;;2.4;1.7;;;;;;;15.69;63.82715;943.2222;;;;
2020/06/05 15:45:40;;;;;;;2;1.6;;;;;;;15.86;63.37598;943.2484;;;;
2020/06/05 15:48:06;;;;;;;2;1.5;;;;;;;15.72;63.39063;943.2286;;;;
2020/06/05 15:50:31;;;;;;;2.8;1.5;;;;;;;15.92;63.9082;943.2701;;;;
2020/06/05 15:52:57;;;;;;;2;1.4;;;;;;;16.14;62.99609;943.2347;;;;
2020/06/05 15:55:28;;;;;;;2;1.6;;;;;;;15.83;62.24219;943.2855;;;;
2020/06/05 15:57:48;;;;;;;2;1.4;;;;;;;15.74;63.02148;943.2567;;;;
2020/06/05 16:00:39;;;;;;;2.6;1.4;;;;;;;15.86;62.22168;943.2453;;;;
2020/06/05 16:02:48;;;;;;;1.6;1.2;;;;;;;15.82;61.20313;943.3671;;;;
2020/06/05 16:05:15;;;;;;;2.8;1.3;;;;;;;15.86;61.34863;943.3644;;;;
2020/06/05 16:07:43;;;;;;;1.9;1.3;;;;;;;15.87;61.24512;943.2852;;;;
2020/06/05 16:10:15;;;;;;;2.9;1.4;;;;;;;16;61.61328;943.3068;;;;
2020/06/05 16:12:34;;;;;;;2;1.4;;;;;;;16.11;60.47461;943.3278;;;;
2020/06/05 16:15:12;;;;;;;2.1;1.4;;;;;;;16.09;60.16797;943.3215;;;;
2020/06/05 16:19:44;;;;;;;4;2.3;;;;;;;16.24;60.34082;943.3428;;;;
2020/06/05 16:23:00;;;;;;;2.3;1.2;;;;;;;16.1;61.10254;943.3691;;;;
2020/06/05 16:24:35;;;;;;;2.2;1;;;;;;;15.96;60.17285;943.3789;;;;
2020/06/05 16:27:00;;;;;;;2;1.1;;;;;;;15.93;59.95898;943.3864;;;;
2020/06/05 16:29:25;;;;;;;1.5;1;;;;;;;15.96;60.33691;943.3433;;;;
2020/06/05 16:31:50;;;;;;;3.5;1;;;;;;;16.03;59.44922;943.4163;;;;
2020/06/05 16:34:15;;;;;;;2.3;1.1;;;;;;;16.13;59.66113;943.3749;;;;
2020/06/05 16:36:42;;;;;;;2.3;0.9;;;;;;;16.05;59.65137;943.3416;;;;
2020/06/05 16:39:07;;;;;;;3.1;1;;;;;;;15.99;60.09668;943.3975;;;;
2020/06/05 16:41:32;;;;;;;2.2;1.2;;;;;;;16.01;60.55273;943.4196;;;;
2020/06/05 16:44:30;;;;;;;1.9;1;;;;;;;16.02;60.41602;943.3861;;;;
2020/06/05 16:46:24;;;;;;;1.8;1.2;;;;;;;16.06;60.3623;943.5419;;;;
2020/06/05 16:52:37;;;;;;;2.8;1.3;;;;;;;15.75;61.58984;943.5036;;;;
2020/06/05 16:56:12;;;;;;;2.5;1.2;;;;;;;15.62;62.7002;943.4978;;;;
2020/06/05 17:03:27;;;;;;;2.3;1.3;;;;;;;15.51;63.08105;943.5845;;;;
2020/06/05 17:06:03;;;;;;;3.9;1.1;;;;;;;15.47;62.63184;943.5692;;;;
2020/06/05 17:11:08;;;;;;;1.9;1.2;;;;;;;15.42;62.48633;943.7222;;;;
2020/06/05 17:13:12;;;;;;;2.1;1.3;;;;;;;15.48;63.01758;943.748;;;;
2020/06/05 17:15:58;;;;;;;2.6;1.4;;;;;;;15.41;62.92578;943.7405;;;;
2020/06/05 17:17:57;;;;;;;3;1.4;;;;;;;15.43;62.60352;943.7219;;;;
2020/06/05 17:20:22;;;;;;;2.6;1.2;;;;;;;15.55;62.45605;943.7502;;;;
2020/06/05 17:22:47;;;;;;;1.1;1;;;;;;;15.52;62.21973;943.7255;;;;
2020/06/05 17:25:14;;;;;;;1.9;1;;;;;;;15.35;62.52148;943.6833;;;;
2020/06/05 17:27:39;;;;;;;3.4;1.1;;;;;;;15.5;62.92676;943.7286;;;;
2020/06/05 17:30:04;;;;;;;2.6;1.1;;;;;;;15.37;62.60645;943.6987;;;;
2020/06/05 17:32:30;;;;;;;2.9;1.2;;;;;;;15.43;63.00977;943.7623;;;;
2020/06/05 17:34:57;;;;;;;3.6;1.2;;;;;;;15.41;62.87891;943.813;;;;
2020/06/05 17:37:22;;;;;;;2.8;1.1;;;;;;;15.4;62.59961;943.8254;;;;
2020/06/05 17:39:47;;;;;;;1.9;1.1;;;;;;;15.36;63.31348;943.8569;;;;
2020/06/05 17:42:17;;;;;;;5.2;1.2;;;;;;;15.37;62.93262;943.7358;;;;
2020/06/05 17:44:43;;;;;;;3.9;1.3;;;;;;;15.32;62.84277;943.8867;;;;
2020/06/05 17:47:08;;;;;;;2.1;1.1;;;;;;;15.48;62.85547;943.8733;;;;
2020/06/05 17:49:36;;;;;;;1.6;1.3;;;;;;;15.45;62.52441;943.8169;;;;
2020/06/05 17:52:03;;;;;;;2.6;1.2;;;;;;;15.37;62.99023;943.8006;;;;
2020/06/05 17:54:28;;;;;;;2.9;1.3;;;;;;;15.42;62.91504;943.8406;;;;
2020/06/05 17:56:54;;;;;;;3.5;1.2;;;;;;;15.4;62.9375;943.9371;;;;
2020/06/05 17:59:19;;;;;;;2.9;1.2;;;;;;;15.48;62.87891;943.9448;;;;
2020/06/05 18:01:55;;;;;;;1.9;1.2;;;;;;;15.25;63.17188;943.925;;;;
2020/06/05 18:04:25;;;;;;;1.8;1.2;;;;;;;15.29;63.44434;943.9989;;;;
2020/06/05 18:06:50;;;;;;;2.4;1;;;;;;;15.17;63.47363;943.9911;;;;
2020/06/05 18:09:15;;;;;;;2.2;1;;;;;;;15.25;63.38086;943.9626;;;;
2020/06/05 18:11:41;;;;;;;3.3;1.2;;;;;;;15.2;62.96582;944.0478;;;;
2020/06/05 18:14:06;;;;;;;2.2;1.1;;;;;;;15.31;62.53906;944.0425;;;;
2020/06/05 18:16:31;;;;;;;2.8;1;;;;;;;15.3;62.2002;944.0666;;;;
2020/06/05 18:18:56;;;;;;;2.1;0.9;;;;;;;15.37;62.23438;943.9328;;;;
2020/06/05 18:21:21;;;;;;;3.4;1.1;;;;;;;15.34;62.00879;943.9803;;;;
2020/06/05 18:23:51;;;;;;;3.8;0.9;;;;;;;15.35;61.88086;944.0248;;;;
2020/06/05 18:26:12;;;;;;;2.7;1;;;;;;;15.27;62.43066;944.0099;;;;
2020/06/05 18:28:37;;;;;;;2.4;1;;;;;;;15.21;62.71094;943.9811;;;;
2020/06/05 18:31:02;;;;;;;3;1;;;;;;;15.24;63.23828;943.983;;;;
2020/06/05 18:33:28;;;;;;;1.8;0.9;;;;;;;15.14;62.94531;944.0003;;;;
2020/06/05 18:35:53;;;;;;;2.4;1;;;;;;;14.99;63.13379;944.1128;;;;
2020/06/05 18:38:18;;;;;;;3.1;1;;;;;;;14.96;63.4209;944.2209;;;;
2020/06/05 18:40:51;;;;;;;3;0.9;;;;;;;14.97;64.29297;944.1861;;;;
2020/06/05 18:43:16;;;;;;;2.5;0.9;;;;;;;14.92;63.86719;944.2463;;;;
2020/06/05 18:46:23;;;;;;;2;0.7;;;;;;;14.87;64.17383;944.2075;;;;
2020/06/05 18:50:37;;;;;;;2.3;0.7;;;;;;;14.91;63.72656;944.4214;;;;
2020/06/05 18:59:14;;;;;;;3;0.8;;;;;;;14.77;64.62207;944.3326;;;;
2020/06/05 19:03:27;;;;;;;1.3;0.9;;;;;;;14.59;64.37695;944.3169;;;;
2020/06/05 19:06:51;;;;;;;2.2;0.7;;;;;;;14.64;64.34961;944.2632;;;;
2020/06/05 19:13:33;;;;;;;1;0.7;;;;;;;14.56;64.5459;944.2953;;;;
2020/06/05 19:15:52;;;;;;;2;0.9;;;;;;;14.56;64.18555;944.3198;;;;
2020/06/05 19:18:06;;;;;;;1.2;0.8;;;;;;;14.59;64.37695;944.2874;;;;
2020/06/05 19:20:43;;;;;;;2.1;0.7;;;;;;;14.55;63.8125;944.3342;;;;
2020/06/05 19:23:09;;;;;;;1.7;0.7;;;;;;;14.63;64.19629;944.4055;;;;
2020/06/05 19:27:12;;;;;;;2.7;0.8;;;;;;;14.65;64.01367;944.5179;;;;
2020/06/05 19:27:58;;;;;;;1.9;0.7;;;;;;;14.62;64.4502;944.4785;;;;
2020/06/05 19:30:33;;;;;;;1.3;0.8;;;;;;;14.53;64.09863;944.5396;;;;
2020/06/05 19:32:49;;;;;;;1.9;0.8;;;;;;;14.5;64.41992;944.5069;;;;
2020/06/05 19:40:05;;;;;;;2.6;0.8;;;;;;;14.43;64.49219;944.446;;;;
2020/06/05 19:42:29;;;;;;;1.6;0.9;;;;;;;14.4;64.58105;944.5844;;;;
2020/06/05 19:44:55;;;;;;;3.3;0.8;;;;;;;14.39;64.54492;944.6495;;;;
2020/06/05 19:47:11;;;;;;;1.2;0.7;;;;;;;14.43;64.73633;944.6281;;;;
2020/06/05 19:49:51;;;;;;;2.1;0.7;;;;;;;14.38;64.91406;944.6085;;;;
2020/06/05 19:52:03;;;;;;;2.1;0.8;;;;;;;14.36;64.87598;944.673;;;;
2020/06/05 19:57:01;;;;;;;2.5;0.9;;;;;;;14.3;65.1582;944.6021;;;;
2020/06/05 19:59:19;;;;;;;3;0.8;;;;;;;14.29;65.31836;944.7134;;;;
2020/06/05 20:01:49;;;;;;;2.6;0.7;;;;;;;14.27;65.24609;944.6944;;;;
2020/06/05 20:04:18;;;;;;;1.6;0.9;;;;;;;14.29;65.70117;944.6454;;;;
2020/06/05 20:07:20;;;;;;;2.2;0.8;;;;;;;14.27;65.44336;944.7696;;;;
2020/06/05 20:11:34;;;;;;;2.6;1;;;;;;;14.27;65.41992;944.7483;;;;
2020/06/05 20:14:53;;;;;;;2.4;0.8;;;;;;;14.22;65.62109;944.8298;;;;
2020/06/05 20:16:38;;;;;;;2.6;0.8;;;;;;;14.24;65.78809;944.8539;;;;
2020/06/05 20:18:54;;;;;;;1.3;0.7;;;;;;;14.22;65.84277;944.9091;;;;
2020/06/05 20:22:05;;;;;;;1.1;0.6;;;;;;;14.19;65.90723;944.9236;;;;
2020/06/05 20:23:34;;;;;;;3;0.9;;;;;;;14.19;66.01172;944.8785;;;;
2020/06/05 20:26:04;;;;;;;2.2;0.7;;;;;;;14.2;66.00098;944.9431;;;;
2020/06/05 20:28:27;;;;;;;2.1;0.7;;;;;;;14.21;65.875;945.0397;;;;
2020/06/05 20:36:12;;;;;;;0.9;0.7;;;;;;;14.2;66.10547;945.0799;;;;
2020/06/05 20:38:08;;;;;;;1.3;0.6;;;;;;;14.19;66.35938;945.1588;;;;
2020/06/05 20:40:35;;;;;;;1.2;0.6;;;;;;;14.15;66.30762;945.0728;;;;
2020/06/05 20:46:27;;;;;;;2.2;0.9;;;;;;;14.13;66.60645;945.0525;;;;
2020/06/05 20:52:45;;;;;;;1.5;0.7;;;;;;;14.04;67.13672;945.282;;;;
2020/06/05 20:55:21;;;;;;;2.4;1;;;;;;;14.04;67.28809;945.2476;;;;
2020/06/05 20:58:33;;;;;;;1.1;0.6;;;;;;;14.03;67.47168;945.2068;;;;
2020/06/05 21:08:23;;;;;;;1.3;0.7;;;;;;;13.97;67.82227;945.3223;;;;
2020/06/05 21:13:24;;;;;;;2.1;0.7;;;;;;;13.94;68.17773;945.2073;;;;
2020/06/05 21:16:31;;;;;;;0.9;0.8;;;;;;;13.97;68.04395;945.2955;;;;
2020/06/05 21:18:28;;;;;;;1.9;0.7;;;;;;;13.97;68.06738;945.2578;;;;
2020/06/05 21:25:39;;;;;;;1.2;0.8;;;;;;;13.91;68.66211;945.3727;;;;
2020/06/05 21:29:54;;;;;;;1.6;0.7;;;;;;;13.89;68.86621;945.4334;;;;
2020/06/05 21:34:08;;;;;;;2;0.8;;;;;;;13.97;68.81934;945.4501;;;;
2020/06/05 21:39:40;;;;;;;1.4;0.7;;;;;;;13.86;69.07031;945.4119;;;;
2020/06/05 21:42:31;;;;;;;1.2;0.7;;;;;;;13.86;69.21973;945.4285;;;;
2020/06/05 21:45:26;;;;;;;3.4;0.8;;;;;;;13.86;69.35938;945.4587;;;;
2020/06/05 21:50:32;;;;;;;1.5;0.8;;;;;;;13.92;69.19531;945.5002;;;;
2020/06/05 21:53:37;;;;;;;2;0.7;;;;;;;13.92;69.4043;945.5075;;;;
2020/06/05 21:57:04;;;;;;;2.2;0.7;;;;;;;13.92;69.33398;945.5354;;;;
2020/06/05 22:04:32;;;;;;;1;0.5;;;;;;;13.98;69.38965;945.5828;;;;
2020/06/05 22:18:03;;;;;;;1.5;0.6;;;;;;;14;69.82324;945.6233;;;;